Time;durP1;ratioP1;P1;durP2;ratioP2;P2;SDS_P1;SDS_P2;PMS_P1;PMS_P2;Temp;Humidity;BMP_temperature;BMP_pressure;BME280_temperature;BME280_humidity;BME280_pressure;Samples;Min_cycle;Max_cycle;Signal;HPM_P1;HPM_P2
2021/06/14 00:02:12;;;;;;;4.75;4.35;;;;;;;15.53;83.73;99502.43;1741712;80;21818;-77
2021/06/14 00:04:39;;;;;;;6.55;3.92;;;;;;;15.54;83.84;99504.09;1733209;81;21052;-77
2021/06/14 00:07:06;;;;;;;6.75;4.03;;;;;;;15.53;83.87;99505.92;1761031;80;21043;-77
2021/06/14 00:09:33;;;;;;;4.45;3.62;;;;;;;15.54;83.89;99499.63;1734991;80;20961;-77
2021/06/14 00:11:59;;;;;;;4.67;3.75;;;;;;;15.53;83.88;99504.59;1758454;80;20912;-76
2021/06/14 00:14:25;;;;;;;4.08;3.55;;;;;;;15.59;84.00;99507.06;1772409;80;21791;-77
2021/06/14 00:16:54;;;;;;;5.58;3.22;;;;;;;15.61;84.00;99506.41;1738868;80;21086;-77
2021/06/14 00:19:21;;;;;;;5.92;3.52;;;;;;;15.59;84.01;99503.90;1733908;81;21091;-76
2021/06/14 00:21:48;;;;;;;4.35;3.50;;;;;;;15.57;84.06;99506.42;1763858;80;20984;-77
2021/06/14 00:24:15;;;;;;;7.20;3.60;;;;;;;15.58;84.19;99507.56;1746110;80;20976;-77
2021/06/14 00:26:43;;;;;;;4.60;3.20;;;;;;;15.59;84.23;99505.73;1755214;80;20972;-77
2021/06/14 00:29:09;;;;;;;6.00;3.22;;;;;;;15.59;84.26;99507.89;1751956;80;20932;-77
2021/06/14 00:31:37;;;;;;;3.77;3.47;;;;;;;15.60;84.25;99508.25;1755410;79;21015;-77
2021/06/14 00:34:04;;;;;;;4.30;3.47;;;;;;;15.57;84.29;99507.25;1764265;79;20979;-77
2021/06/14 00:36:32;;;;;;;4.35;3.12;;;;;;;15.58;84.27;99510.73;1745578;80;21407;-77
2021/06/14 00:38:58;;;;;;;5.40;3.60;;;;;;;15.61;84.38;99520.55;1761337;79;22374;-77
2021/06/14 00:41:25;;;;;;;6.10;3.72;;;;;;;15.64;84.37;99511.41;1757449;80;21027;-77
2021/06/14 00:43:53;;;;;;;6.67;3.47;;;;;;;15.61;84.38;99511.23;1749630;79;21494;-77
2021/06/14 00:46:20;;;;;;;4.97;3.27;;;;;;;15.58;84.34;99516.89;1753415;80;21383;-77
2021/06/14 00:48:47;;;;;;;4.70;3.12;;;;;;;15.56;84.35;99514.91;1761939;80;21699;-76
2021/06/14 00:51:13;;;;;;;3.17;2.80;;;;;;;15.57;84.29;99515.73;1750292;80;21515;-77
2021/06/14 00:53:42;;;;;;;5.10;3.27;;;;;;;15.56;84.24;99511.42;1747319;79;21051;-77
2021/06/14 00:56:12;;;;;;;3.87;3.20;;;;;;;15.56;84.23;99514.08;1755803;79;21351;-77
2021/06/14 00:58:41;;;;;;;5.05;3.20;;;;;;;15.55;84.15;99517.75;1763473;80;20936;-76
2021/06/14 01:01:07;;;;;;;4.53;3.00;;;;;;;15.53;84.07;99515.73;1749665;80;21494;-77
2021/06/14 01:03:34;;;;;;;5.12;3.17;;;;;;;15.51;84.01;99511.09;1756565;79;22442;-76
2021/06/14 01:06:05;;;;;;;8.70;3.12;;;;;;;15.48;83.99;99512.78;1760396;80;20948;-76
2021/06/14 01:08:35;;;;;;;3.35;3.05;;;;;;;15.43;84.00;99515.45;1766197;80;21089;-77
2021/06/14 01:11:11;;;;;;;4.37;3.30;;;;;;;15.40;84.04;99521.13;1765267;80;21050;-77
2021/06/14 01:14:05;;;;;;;3.80;3.15;;;;;;;15.38;84.11;99519.16;1733763;82;20956;-77
2021/06/14 01:16:53;;;;;;;3.47;3.00;;;;;;;15.34;84.09;99514.33;1750019;80;21832;-77
2021/06/14 01:19:53;;;;;;;6.05;3.42;;;;;;;15.28;84.08;99512.38;1725545;80;20930;-77
2021/06/14 01:22:49;;;;;;;6.20;3.17;;;;;;;15.24;84.05;99518.53;1742589;80;20985;-77
2021/06/14 01:25:29;;;;;;;4.67;3.08;;;;;;;15.22;83.96;99509.90;1739075;78;21007;-77
2021/06/14 01:27:57;;;;;;;4.10;3.15;;;;;;;15.24;83.87;99517.70;1731311;81;21087;-78
2021/06/14 01:30:30;;;;;;;3.42;3.12;;;;;;;15.25;83.81;99522.88;1713137;82;21781;-78
2021/06/14 01:32:57;;;;;;;6.20;3.47;;;;;;;15.29;83.96;99524.18;1737288;80;20916;-78
2021/06/14 01:35:38;;;;;;;7.30;4.00;;;;;;;15.38;84.28;99527.63;1749780;80;20992;-78
2021/06/14 01:38:06;;;;;;;4.35;3.45;;;;;;;15.43;84.48;99522.61;1724366;80;21087;-79
2021/06/14 01:40:33;;;;;;;5.37;4.17;;;;;;;15.50;84.62;99526.23;1753813;79;21079;-78
2021/06/14 01:43:03;;;;;;;5.20;4.17;;;;;;;15.57;84.84;99529.05;1715296;81;21805;-78
2021/06/14 01:45:30;;;;;;;4.75;3.95;;;;;;;15.66;85.12;99530.19;1744175;80;20945;-77
2021/06/14 01:47:57;;;;;;;6.12;3.70;;;;;;;15.73;85.27;99528.48;1741620;80;21519;-78
2021/06/14 01:50:28;;;;;;;5.00;4.28;;;;;;;15.79;85.39;99526.11;1753476;80;21087;-77
2021/06/14 01:52:56;;;;;;;4.22;3.75;;;;;;;15.84;85.55;99529.92;1752339;80;20995;-78
2021/06/14 01:55:24;;;;;;;4.62;3.80;;;;;;;15.90;85.72;99535.85;1758914;80;22184;-78
2021/06/14 01:57:55;;;;;;;11.13;3.97;;;;;;;15.95;85.79;99536.16;1755465;79;21008;-78
2021/06/14 02:00:24;;;;;;;4.65;3.72;;;;;;;15.98;85.84;99538.47;1706592;80;21321;-78
2021/06/14 02:02:52;;;;;;;5.12;3.65;;;;;;;15.99;85.86;99540.12;1760620;80;20905;-78
2021/06/14 02:05:36;;;;;;;4.40;3.60;;;;;;;16.02;85.90;99538.96;1736658;80;20937;-77
2021/06/14 02:08:03;;;;;;;5.42;3.62;;;;;;;16.01;85.92;99541.27;1733368;80;21816;-77
2021/06/14 02:10:30;;;;;;;5.03;3.45;;;;;;;16.01;85.95;99554.09;1742402;80;20961;-77
2021/06/14 02:12:57;;;;;;;5.83;3.90;;;;;;;16.01;86.01;99550.09;1751868;79;21033;-77
2021/06/14 02:15:25;;;;;;;4.33;3.70;;;;;;;16.02;86.01;99551.77;1743708;80;20932;-77
2021/06/14 02:17:52;;;;;;;4.42;3.70;;;;;;;16.06;86.12;99554.08;1755454;79;21059;-77
2021/06/14 02:20:20;;;;;;;5.42;4.03;;;;;;;16.07;86.23;99560.55;1753924;80;21814;-77
2021/06/14 02:22:47;;;;;;;6.08;4.00;;;;;;;16.12;86.37;99565.36;1722967;79;21008;-77
2021/06/14 02:25:14;;;;;;;5.45;3.62;;;;;;;16.14;86.52;99569.50;1733706;79;21487;-78
2021/06/14 02:27:41;;;;;;;4.53;4.00;;;;;;;16.17;86.63;99569.64;1729101;79;21000;-77
2021/06/14 02:30:13;;;;;;;5.58;3.65;;;;;;;16.20;86.75;99571.44;1764386;80;20989;-78
2021/06/14 02:32:39;;;;;;;5.10;3.98;;;;;;;16.25;86.83;99570.92;1750624;79;21816;-77
2021/06/14 02:35:09;;;;;;;7.75;4.20;;;;;;;16.26;86.91;99576.58;1730468;80;20892;-77
2021/06/14 02:37:39;;;;;;;5.42;3.58;;;;;;;16.28;86.92;99578.05;1757247;80;21047;-78
2021/06/14 02:40:07;;;;;;;4.53;3.60;;;;;;;16.31;86.94;99583.05;1728826;80;21012;-77
2021/06/14 02:42:35;;;;;;;6.40;3.77;;;;;;;16.35;86.96;99585.34;1760010;80;20970;-78
2021/06/14 02:45:03;;;;;;;5.83;3.47;;;;;;;16.35;86.98;99582.17;1743123;79;22463;-78
2021/06/14 02:47:29;;;;;;;4.67;3.80;;;;;;;16.35;87.00;99596.83;1746548;80;20979;-78
2021/06/14 02:49:57;;;;;;;5.22;3.55;;;;;;;16.35;87.01;99592.83;1754101;80;21036;-78
2021/06/14 02:52:25;;;;;;;4.80;4.28;;;;;;;16.33;87.01;99592.19;1746109;80;21032;-78
2021/06/14 02:54:59;;;;;;;4.80;3.52;;;;;;;16.34;87.01;99591.68;1777682;80;21249;-77
2021/06/14 02:57:28;;;;;;;5.83;3.65;;;;;;;16.35;87.04;99589.34;1757434;79;22723;-78
2021/06/14 02:59:55;;;;;;;8.58;3.70;;;;;;;16.36;87.01;99589.66;1754761;79;20956;-77
2021/06/14 03:02:23;;;;;;;4.78;3.40;;;;;;;16.37;87.01;99592.14;1757912;80;20989;-77
2021/06/14 03:04:50;;;;;;;3.72;3.42;;;;;;;16.38;86.98;99595.63;1762662;80;21079;-77
2021/06/14 03:07:24;;;;;;;6.17;3.60;;;;;;;16.37;87.00;99590.81;1753314;80;21004;-78
2021/06/14 03:09:52;;;;;;;4.75;3.47;;;;;;;16.40;86.98;99585.62;1752062;80;21696;-78
2021/06/14 03:12:20;;;;;;;3.80;3.40;;;;;;;16.42;86.95;99591.12;1734754;81;21758;-77
2021/06/14 03:14:48;;;;;;;4.08;3.40;;;;;;;16.44;86.94;99589.09;1697179;81;21021;-77
2021/06/14 03:17:15;;;;;;;4.55;3.12;;;;;;;16.46;86.92;99585.75;1752987;80;21040;-77
2021/06/14 03:19:42;;;;;;;4.33;3.05;;;;;;;16.48;86.93;99584.23;1729875;82;21478;-77
2021/06/14 03:22:11;;;;;;;6.78;3.60;;;;;;;16.50;86.91;99589.73;1715267;80;22451;-78
2021/06/14 03:24:39;;;;;;;4.85;3.22;;;;;;;16.53;86.90;99590.69;1754909;80;21022;-77
2021/06/14 03:27:07;;;;;;;3.60;3.30;;;;;;;16.57;86.87;99593.31;1739266;80;21044;-78
2021/06/14 03:29:33;;;;;;;5.25;3.47;;;;;;;16.61;86.81;99591.13;1748505;79;20964;-77
2021/06/14 03:31:59;;;;;;;4.10;3.52;;;;;;;16.63;86.78;99596.28;1770845;80;20916;-77
2021/06/14 03:34:27;;;;;;;4.55;3.37;;;;;;;16.64;86.78;99597.94;1764444;80;22545;-77
2021/06/14 03:36:54;;;;;;;3.83;3.42;;;;;;;16.66;86.79;99598.58;1750154;79;20940;-77
2021/06/14 03:39:21;;;;;;;3.92;3.20;;;;;;;16.65;86.79;99607.08;1756221;80;20984;-78
2021/06/14 03:41:48;;;;;;;4.80;3.35;;;;;;;16.65;86.74;99606.26;1746448;80;20952;-78
2021/06/14 03:44:19;;;;;;;4.85;3.67;;;;;;;16.68;86.76;99611.22;1740606;79;21103;-78
2021/06/14 03:46:47;;;;;;;3.87;3.47;;;;;;;16.74;86.76;99615.88;1748542;79;21828;-80
2021/06/14 03:49:14;;;;;;;4.20;3.58;;;;;;;16.78;86.77;99618.50;1737749;81;21087;-79
2021/06/14 03:51:42;;;;;;;3.77;3.37;;;;;;;16.81;86.73;99620.32;1711221;81;21547;-77
2021/06/14 03:54:09;;;;;;;4.53;3.80;;;;;;;16.82;86.70;99621.14;1682954;82;20984;-77
2021/06/14 03:56:36;;;;;;;5.15;3.80;;;;;;;16.86;86.68;99621.92;1710830;82;20957;-78
2021/06/14 03:59:04;;;;;;;3.87;3.50;;;;;;;16.91;86.72;99622.73;1729176;81;21829;-77
2021/06/14 04:01:31;;;;;;;4.58;3.22;;;;;;;16.95;86.67;99628.52;1715409;81;20941;-78
2021/06/14 04:06:30;;;;;;;5.70;3.80;;;;;;;17.07;86.65;99628.40;1690085;83;21084;-78
2021/06/14 04:08:57;;;;;;;4.20;3.80;;;;;;;17.14;86.64;99627.50;1735529;82;21055;-78
2021/06/14 04:11:24;;;;;;;6.28;4.08;;;;;;;17.23;86.65;99632.76;1728849;81;21827;-78
2021/06/14 04:13:51;;;;;;;5.10;3.80;;;;;;;17.29;86.58;99625.36;1699769;83;21025;-77
2021/06/14 04:16:18;;;;;;;4.28;3.87;;;;;;;17.35;86.48;99628.61;1699466;82;21002;-82
2021/06/14 04:18:45;;;;;;;7.15;3.65;;;;;;;17.38;86.32;99632.27;1706802;81;21625;-81
2021/06/14 04:21:13;;;;;;;6.15;4.33;;;;;;;17.43;86.23;99633.87;1714770;81;21098;-82
2021/06/14 04:23:40;;;;;;;5.25;4.00;;;;;;;17.42;86.01;99638.38;1742463;80;22572;-82
2021/06/14 04:26:08;;;;;;;5.25;4.42;;;;;;;17.43;85.91;99640.55;1747613;80;20960;-82
2021/06/14 04:28:36;;;;;;;5.28;4.17;;;;;;;17.43;85.87;99636.03;1747534;80;20992;-83
2021/06/14 04:31:03;;;;;;;8.65;3.98;;;;;;;17.49;85.81;99640.33;1739121;81;21004;-81
2021/06/14 04:33:30;;;;;;;5.22;4.40;;;;;;;17.53;85.70;99641.09;1732476;81;21252;-77
2021/06/14 04:35:56;;;;;;;5.78;4.50;;;;;;;17.60;85.64;99641.20;1737450;81;21792;-77
2021/06/14 04:38:22;;;;;;;4.78;4.08;;;;;;;17.66;85.56;99639.09;1706506;80;20973;-76
2021/06/14 04:40:50;;;;;;;4.05;3.52;;;;;;;17.73;85.41;99648.89;1747682;80;20945;-79
2021/06/14 04:43:16;;;;;;;5.75;4.15;;;;;;;17.79;85.14;99649.18;1741906;80;21178;-79
2021/06/14 04:45:43;;;;;;;5.25;4.25;;;;;;;17.82;84.91;99656.81;1755018;80;21060;-82
2021/06/14 04:48:10;;;;;;;5.90;3.98;;;;;;;17.88;84.82;99662.76;1753581;80;21710;-81
2021/06/14 04:50:37;;;;;;;7.78;4.20;;;;;;;17.95;84.66;99651.63;1772728;79;21054;-79
2021/06/14 04:53:04;;;;;;;7.03;4.00;;;;;;;18.01;84.36;99662.91;1762413;79;20977;-80
2021/06/14 04:55:31;;;;;;;5.35;3.90;;;;;;;18.06;84.05;99659.70;1756079;79;20936;-81
2021/06/14 04:57:58;;;;;;;7.22;4.60;;;;;;;18.09;83.79;99665.48;1751101;80;20970;-83
2021/06/14 05:00:25;;;;;;;5.70;4.30;;;;;;;18.14;83.61;99664.91;1758499;80;21831;-79
2021/06/14 05:02:51;;;;;;;6.72;4.05;;;;;;;18.22;83.56;99673.64;1757916;80;20957;-82
2021/06/14 05:05:18;;;;;;;5.25;4.75;;;;;;;18.32;83.52;99673.34;1749144;80;21444;-82
2021/06/14 05:07:45;;;;;;;4.70;4.28;;;;;;;18.40;83.35;99671.06;1762192;80;21542;-81
2021/06/14 05:10:11;;;;;;;6.33;4.30;;;;;;;18.45;83.04;99676.69;1758376;80;21455;-81
2021/06/14 05:12:38;;;;;;;6.35;4.17;;;;;;;18.52;82.96;99673.55;1766578;78;22657;-79
2021/06/14 05:15:06;;;;;;;6.05;4.67;;;;;;;18.60;82.76;99682.28;1746966;80;20957;-80
2021/06/14 05:17:32;;;;;;;5.47;4.65;;;;;;;18.67;82.45;99684.23;1754143;80;21079;-80
2021/06/14 05:19:59;;;;;;;6.87;5.55;;;;;;;18.75;82.30;99684.94;1768546;79;21570;-79
2021/06/14 05:22:26;;;;;;;6.78;5.62;;;;;;;18.83;81.95;99686.16;1765131;79;20975;-80
2021/06/14 05:24:54;;;;;;;6.78;5.28;;;;;;;18.88;81.42;99685.05;1757503;78;21792;-80
2021/06/14 05:27:21;;;;;;;6.53;5.70;;;;;;;18.90;80.94;99684.86;1764685;80;21174;-80
2021/06/14 05:29:49;;;;;;;6.00;5.40;;;;;;;18.91;80.72;99685.17;1761333;78;21186;-80
2021/06/14 05:32:15;;;;;;;8.60;5.78;;;;;;;18.95;80.61;99690.47;1752522;78;21039;-81
2021/06/14 05:34:42;;;;;;;7.45;5.75;;;;;;;19.01;80.59;99691.05;1743232;79;20972;-80
2021/06/14 05:37:09;;;;;;;6.20;5.30;;;;;;;19.08;80.41;99694.59;1757294;79;21721;-79
2021/06/14 05:39:36;;;;;;;9.63;5.90;;;;;;;19.16;80.36;99703.00;1758384;79;21014;-80
2021/06/14 05:42:02;;;;;;;7.65;6.67;;;;;;;19.23;80.11;99704.41;1766035;79;21237;-79
2021/06/14 05:44:29;;;;;;;9.80;6.05;;;;;;;19.32;79.90;99703.23;1742296;79;21066;-79
2021/06/14 05:46:55;;;;;;;8.60;6.47;;;;;;;19.37;79.57;99697.59;1750207;78;21020;-82
2021/06/14 05:49:22;;;;;;;7.62;6.20;;;;;;;19.40;79.21;99695.89;1761152;79;21850;-79
2021/06/14 05:51:49;;;;;;;6.58;5.75;;;;;;;19.45;78.99;99700.12;1755779;78;20999;-82
2021/06/14 05:54:16;;;;;;;8.25;6.37;;;;;;;19.51;78.86;99706.56;1757494;79;21051;-79
2021/06/14 05:56:43;;;;;;;8.68;6.17;;;;;;;19.55;78.54;99711.01;1734927;80;21086;-78
2021/06/14 05:59:10;;;;;;;10.58;6.10;;;;;;;19.59;78.52;99714.97;1735646;80;21122;-81
2021/06/14 06:01:37;;;;;;;8.30;6.10;;;;;;;19.64;78.39;99717.91;1703167;82;21806;-80
2021/06/14 06:04:05;;;;;;;6.83;5.87;;;;;;;19.66;78.07;99716.67;1759082;79;21395;-81
2021/06/14 06:06:32;;;;;;;7.25;6.20;;;;;;;19.70;78.03;99721.98;1748841;79;21015;-78
2021/06/14 06:08:59;;;;;;;9.20;6.55;;;;;;;19.74;77.98;99721.05;1725791;81;21360;-81
2021/06/14 06:11:27;;;;;;;9.48;7.15;;;;;;;19.80;77.79;99725.64;1757263;79;21109;-80
2021/06/14 06:13:53;;;;;;;9.60;7.20;;;;;;;19.84;77.55;99728.23;1756284;79;21795;-81
2021/06/14 06:16:20;;;;;;;9.88;7.37;;;;;;;19.90;77.59;99728.79;1744442;78;21046;-79
2021/06/14 06:18:47;;;;;;;11.22;6.87;;;;;;;20.01;77.71;99730.91;1748895;80;21020;-79
2021/06/14 06:21:14;;;;;;;8.75;7.12;;;;;;;20.16;77.85;99731.27;1735589;80;20948;-78
2021/06/14 06:23:40;;;;;;;9.53;7.17;;;;;;;20.29;77.78;99732.17;1762610;79;20967;-78
2021/06/14 06:26:07;;;;;;;10.58;6.87;;;;;;;20.40;77.30;99737.47;1759070;79;21752;-77
2021/06/14 06:28:34;;;;;;;10.30;6.90;;;;;;;20.44;76.71;99736.58;1747128;79;21087;-79
2021/06/14 06:31:01;;;;;;;9.90;7.20;;;;;;;20.46;76.58;99735.36;1758103;77;21044;-78
2021/06/14 06:33:28;;;;;;;10.98;7.30;;;;;;;20.52;76.38;99731.86;1779703;79;21012;-79
2021/06/14 06:35:54;;;;;;;11.63;9.40;;;;;;;20.59;76.04;99737.25;1743385;79;21525;-80
2021/06/14 06:38:20;;;;;;;11.90;8.75;;;;;;;20.64;75.54;99742.82;1762883;80;22427;-78
2021/06/14 06:40:47;;;;;;;11.28;8.28;;;;;;;20.70;75.34;99741.20;1748569;80;21538;-79
2021/06/14 06:43:13;;;;;;;10.18;7.90;;;;;;;20.77;75.27;99744.73;1721521;82;21386;-78
2021/06/14 06:45:40;;;;;;;16.15;8.90;;;;;;;20.89;75.28;99749.81;1703661;81;21391;-76
2021/06/14 06:48:07;;;;;;;10.43;8.40;;;;;;;20.92;74.76;99742.68;1768239;79;20968;-77
2021/06/14 06:50:34;;;;;;;11.70;8.55;;;;;;;20.99;74.99;99748.06;1766252;80;21866;-77
2021/06/14 06:53:02;;;;;;;8.45;7.42;;;;;;;21.09;74.61;99750.66;1736926;81;21028;-77
2021/06/14 06:55:31;;;;;;;12.25;8.90;;;;;;;21.22;74.54;99755.72;1737724;82;21213;-77
2021/06/14 06:57:57;;;;;;;12.47;8.45;;;;;;;21.37;74.27;99757.73;1722991;81;21049;-76
2021/06/14 07:00:25;;;;;;;14.30;9.75;;;;;;;21.44;73.74;99758.57;1750200;80;21059;-76
2021/06/14 07:02:52;;;;;;;11.65;8.88;;;;;;;21.48;72.40;99762.48;1749197;80;21815;-76
2021/06/14 07:05:18;;;;;;;10.90;8.93;;;;;;;21.47;72.08;99766.72;1742157;81;20963;-77
2021/06/14 07:07:45;;;;;;;11.55;8.90;;;;;;;21.51;72.30;99777.35;1755078;79;21055;-79
2021/06/14 07:10:12;;;;;;;10.18;8.60;;;;;;;21.57;72.08;99781.91;1707873;81;22020;-79
2021/06/14 07:12:39;;;;;;;10.10;8.25;;;;;;;21.62;72.06;99777.58;1743331;80;21063;-76
2021/06/14 07:15:13;;;;;;;13.85;8.10;;;;;;;21.70;71.85;99779.20;1753071;80;21857;-76
2021/06/14 07:17:42;;;;;;;13.03;8.38;;;;;;;21.80;71.58;99785.50;1702715;81;21016;-79
2021/06/14 07:20:11;;;;;;;14.23;7.90;;;;;;;21.90;71.23;99796.13;1747735;80;21494;-83
2021/06/14 07:22:39;;;;;;;9.80;7.85;;;;;;;22.00;70.62;99797.90;1765047;80;21564;-79
2021/06/14 07:25:07;;;;;;;11.18;7.67;;;;;;;22.03;70.44;99800.67;1749872;80;21486;-75
2021/06/14 07:27:34;;;;;;;11.20;8.00;;;;;;;22.03;69.57;99802.02;1754064;80;21839;-76
2021/06/14 07:30:01;;;;;;;11.93;8.58;;;;;;;21.96;69.45;99802.55;1740073;81;21043;-75
2021/06/14 07:32:27;;;;;;;10.18;7.35;;;;;;;21.93;69.41;99807.00;1721378;79;21079;-81
2021/06/14 07:34:54;;;;;;;11.80;7.53;;;;;;;21.94;69.43;99808.13;1747313;79;20952;-76
2021/06/14 07:37:20;;;;;;;11.73;8.18;;;;;;;22.02;70.00;99813.81;1751344;78;21198;-77
2021/06/14 07:39:47;;;;;;;12.78;7.90;;;;;;;22.10;68.98;99817.66;1729264;81;21830;-83
2021/06/14 07:42:16;;;;;;;12.95;8.18;;;;;;;22.12;68.84;99819.63;1744832;80;21585;-81
2021/06/14 07:44:44;;;;;;;9.33;7.65;;;;;;;22.09;69.02;99822.70;1753001;79;21000;-81
2021/06/14 07:47:11;;;;;;;10.32;7.97;;;;;;;22.10;68.90;99817.66;1755491;78;21035;-81
2021/06/14 07:49:39;;;;;;;7.78;6.97;;;;;;;22.19;69.48;99824.44;1761294;80;21040;-81
2021/06/14 07:52:07;;;;;;;13.95;7.78;;;;;;;22.31;69.42;99827.86;1737898;80;22517;-83
2021/06/14 07:54:34;;;;;;;11.38;7.35;;;;;;;22.30;68.46;99816.79;1765352;79;20956;-82
2021/06/14 07:57:01;;;;;;;9.53;7.15;;;;;;;22.24;68.42;99829.20;1744465;80;21063;-84
2021/06/14 07:59:27;;;;;;;10.58;6.78;;;;;;;22.17;68.16;99823.83;1745991;82;21463;-83
2021/06/14 08:01:54;;;;;;;8.28;6.20;;;;;;;22.24;69.00;99830.03;1748128;81;21397;-81
2021/06/14 08:04:21;;;;;;;9.33;5.65;;;;;;;22.46;69.91;99831.10;1746723;81;22594;-81
2021/06/14 08:06:47;;;;;;;8.78;6.00;;;;;;;22.63;68.37;99836.33;1740150;80;21004;-81
2021/06/14 08:09:16;;;;;;;10.80;5.92;;;;;;;22.70;67.77;99830.40;1743806;79;20942;-87
2021/06/14 08:11:45;;;;;;;8.53;6.00;;;;;;;22.79;67.89;99831.81;1745134;79;21852;-85
2021/06/14 08:14:12;;;;;;;6.40;5.60;;;;;;;22.90;66.42;99836.25;1748087;80;21003;-83
2021/06/14 08:16:43;;;;;;;6.90;4.95;;;;;;;22.83;66.30;99841.09;1763592;79;21800;-80
2021/06/14 08:19:13;;;;;;;5.95;5.17;;;;;;;22.81;65.35;99839.15;1764011;79;20972;-79
2021/06/14 08:27:08;;;;;;;9.55;5.45;;;;;;;22.89;64.22;99848.88;1733246;81;20980;-78
2021/06/14 08:29:35;;;;;;;8.00;5.55;;;;;;;22.89;65.03;99855.62;1700402;82;21803;-77
2021/06/14 08:32:02;;;;;;;5.60;4.90;;;;;;;23.00;65.41;99855.45;1735469;82;21051;-78
2021/06/14 08:34:28;;;;;;;6.22;4.78;;;;;;;23.05;64.45;99855.09;1739429;81;21023;-80
2021/06/14 08:36:55;;;;;;;6.50;4.20;;;;;;;23.10;64.37;99859.86;1736648;81;20965;-80
2021/06/14 08:39:21;;;;;;;6.03;4.80;;;;;;;23.21;63.22;99864.55;1715926;81;20954;-80
2021/06/14 08:41:48;;;;;;;5.97;4.45;;;;;;;23.23;62.16;99865.16;1710476;81;21752;-77
2021/06/14 08:44:14;;;;;;;7.45;4.80;;;;;;;23.18;62.43;99871.73;1727140;81;20971;-77
2021/06/14 08:46:42;;;;;;;6.05;4.83;;;;;;;23.25;62.58;99871.67;1730720;82;20996;-74
2021/06/14 08:49:08;;;;;;;8.15;4.97;;;;;;;23.30;62.65;99872.69;1725787;81;21045;-76
2021/06/14 08:51:35;;;;;;;6.83;4.30;;;;;;;23.43;63.20;99871.24;1720722;81;21483;-76
2021/06/14 08:54:05;;;;;;;8.40;4.78;;;;;;;23.55;62.57;99867.34;1746298;79;22674;-74
2021/06/14 08:56:31;;;;;;;8.83;4.72;;;;;;;23.63;62.40;99879.22;1738023;79;20957;-76
2021/06/14 08:58:57;;;;;;;4.78;4.35;;;;;;;23.76;62.11;99885.58;1734024;79;21040;-73
2021/06/14 09:01:25;;;;;;;6.08;4.60;;;;;;;23.85;61.63;99885.08;1758414;79;21019;-75
2021/06/14 09:03:52;;;;;;;6.70;3.70;;;;;;;23.91;61.16;99883.36;1762878;80;21173;-76
2021/06/14 09:06:18;;;;;;;7.67;4.20;;;;;;;23.97;59.98;99890.58;1772336;80;22384;-75
2021/06/14 09:08:57;;;;;;;6.67;4.30;;;;;;;23.95;60.51;99889.45;1757893;79;21897;-74
2021/06/14 09:11:25;;;;;;;6.17;3.83;;;;;;;23.99;60.76;99888.48;1769269;80;20964;-74
2021/06/14 09:13:52;;;;;;;8.38;3.90;;;;;;;24.08;59.59;99891.20;1765627;79;20921;-74
2021/06/14 09:16:20;;;;;;;5.75;3.80;;;;;;;24.03;58.83;99895.11;1725857;80;20964;-76
2021/06/14 09:18:47;;;;;;;4.10;3.50;;;;;;;24.04;59.71;99894.05;1736890;81;21783;-72
2021/06/14 09:21:15;;;;;;;9.23;4.28;;;;;;;24.11;58.39;99900.72;1738267;81;21000;-72
2021/06/14 09:23:47;;;;;;;4.55;4.10;;;;;;;24.08;58.29;99906.56;1726795;81;21006;-73
2021/06/14 09:26:39;;;;;;;4.47;4.08;;;;;;;24.07;58.73;99904.92;1695109;83;21102;-72
2021/06/14 09:29:13;;;;;;;5.00;3.60;;;;;;;24.08;58.18;99901.17;1736371;82;21420;-73
2021/06/14 09:31:58;;;;;;;9.55;3.67;;;;;;;24.12;58.82;99903.19;1755574;80;21823;-73
2021/06/14 09:34:37;;;;;;;5.95;3.20;;;;;;;24.26;58.10;99910.66;1747199;82;21027;-75
2021/06/14 09:37:13;;;;;;;6.92;3.30;;;;;;;24.42;57.83;99910.13;1729509;81;21068;-75
2021/06/14 09:39:43;;;;;;;5.95;3.58;;;;;;;24.57;57.67;99908.39;1720410;81;21032;-74
2021/06/14 09:42:23;;;;;;;5.22;3.37;;;;;;;24.75;57.68;99912.45;1707188;83;21029;-74
2021/06/14 09:44:51;;;;;;;6.80;3.60;;;;;;;24.91;56.83;99909.67;1689707;82;21849;-75
2021/06/14 09:47:18;;;;;;;5.17;3.17;;;;;;;24.98;56.11;99912.27;1707359;83;21468;-72
2021/06/14 09:50:03;;;;;;;4.45;3.20;;;;;;;24.96;55.32;99914.39;1708132;82;21057;-73
2021/06/14 09:52:29;;;;;;;6.45;3.10;;;;;;;24.94;55.26;99912.44;1729227;81;21539;-73
2021/06/14 09:55:11;;;;;;;3.47;3.00;;;;;;;24.87;55.08;99915.22;1738867;81;21576;-73
2021/06/14 09:57:39;;;;;;;6.10;2.87;;;;;;;24.91;55.05;99914.26;1725008;81;21759;-73
2021/06/14 10:00:15;;;;;;;4.03;3.02;;;;;;;24.88;54.66;99922.27;1706016;83;21040;-73
2021/06/14 10:02:41;;;;;;;4.03;2.87;;;;;;;24.90;54.81;99917.48;1711895;81;21496;-72
2021/06/14 10:05:22;;;;;;;5.60;3.15;;;;;;;24.97;55.53;99920.91;1693288;82;21427;-71
2021/06/14 10:07:51;;;;;;;6.33;3.10;;;;;;;25.10;54.69;99927.55;1756324;79;21640;-76
2021/06/14 10:10:27;;;;;;;6.90;2.90;;;;;;;25.16;54.99;99928.50;1758585;79;21811;-77
2021/06/14 10:12:58;;;;;;;8.78;3.12;;;;;;;25.32;54.21;99927.05;1757122;79;21043;-76
2021/06/14 10:15:38;;;;;;;3.30;3.00;;;;;;;25.46;54.50;99931.73;1735783;80;21114;-75
2021/06/14 10:18:10;;;;;;;3.70;3.00;;;;;;;25.59;53.40;99920.74;1728107;81;21004;-74
2021/06/14 10:20:38;;;;;;;4.28;2.92;;;;;;;25.75;54.45;99932.27;1740099;80;21013;-73
2021/06/14 10:23:05;;;;;;;4.40;2.80;;;;;;;26.01;54.72;99935.61;1743994;79;21815;-74
2021/06/14 10:25:34;;;;;;;6.25;3.10;;;;;;;26.25;52.87;99930.53;1736440;80;21069;-74
2021/06/14 10:28:02;;;;;;;6.33;3.30;;;;;;;26.29;52.37;99931.70;1741150;80;20991;-75
2021/06/14 10:30:29;;;;;;;8.23;2.80;;;;;;;26.36;53.30;99935.66;1726922;80;20979;-74
2021/06/14 10:32:56;;;;;;;4.55;2.75;;;;;;;26.50;51.23;99927.06;1735101;80;20927;-73
2021/06/14 10:35:22;;;;;;;4.50;2.80;;;;;;;26.64;51.08;99927.66;1726220;80;21811;-74
2021/06/14 10:37:51;;;;;;;6.00;2.60;;;;;;;26.77;51.33;99926.03;1742667;79;20968;-74
2021/06/14 10:40:20;;;;;;;5.65;2.70;;;;;;;26.90;50.39;99929.53;1747471;80;21420;-75
2021/06/14 10:42:47;;;;;;;3.00;2.42;;;;;;;27.02;50.65;99928.96;1707310;84;21060;-75
2021/06/14 10:45:18;;;;;;;4.12;2.50;;;;;;;27.12;49.45;99927.88;1736424;78;21379;-75
2021/06/14 10:47:46;;;;;;;4.95;2.40;;;;;;;27.17;48.09;99927.95;1805668;79;21801;-74
2021/06/14 10:50:27;;;;;;;7.62;2.08;;;;;;;27.18;47.94;99922.00;1786160;79;21484;-74
2021/06/14 10:52:55;;;;;;;4.03;2.20;;;;;;;27.17;48.05;99929.31;1727791;78;21279;-73
2021/06/14 10:55:30;;;;;;;3.40;2.40;;;;;;;27.33;48.57;99919.59;1723193;79;21137;-76
2021/06/14 10:57:57;;;;;;;5.62;2.10;;;;;;;27.49;46.63;99914.72;1716845;80;21064;-76
2021/06/14 11:00:34;;;;;;;5.17;2.58;;;;;;;27.51;45.94;99911.25;1722689;78;21809;-75
2021/06/14 11:03:04;;;;;;;6.67;2.42;;;;;;;27.41;47.46;99921.06;1706067;82;21110;-75
2021/06/14 11:05:45;;;;;;;4.28;2.40;;;;;;;27.48;47.24;99914.43;1741982;80;21042;-76
2021/06/14 11:08:23;;;;;;;2.92;2.25;;;;;;;27.63;48.14;99917.97;1731712;81;21054;-76
2021/06/14 11:11:03;;;;;;;2.58;2.00;;;;;;;27.89;46.47;99915.16;1709851;80;21074;-77
2021/06/14 11:13:30;;;;;;;3.75;2.42;;;;;;;28.16;46.51;99913.96;1731156;80;21618;-77
2021/06/14 11:15:59;;;;;;;6.67;2.15;;;;;;;28.21;44.93;99905.91;1724388;81;21036;-77
2021/06/14 11:18:32;;;;;;;3.22;2.37;;;;;;;28.21;44.93;99905.91;1729174;81;21091;-74
2021/06/14 11:21:11;;;;;;;3.15;2.30;;;;;;;28.18;45.96;99911.31;1719681;81;21499;-76
2021/06/14 11:23:38;;;;;;;3.77;2.35;;;;;;;28.40;45.00;99921.43;1725923;81;21064;-78
2021/06/14 11:26:06;;;;;;;2.55;2.12;;;;;;;28.37;43.07;99911.04;1739238;80;21789;-76
2021/06/14 11:28:36;;;;;;;2.33;1.90;;;;;;;28.27;43.83;99906.79;1738416;80;21023;-76
2021/06/14 11:31:21;;;;;;;4.17;2.20;;;;;;;28.33;43.95;99897.69;1711849;81;21489;-74
2021/06/14 11:33:49;;;;;;;4.47;2.12;;;;;;;28.41;44.58;99898.62;1696391;81;21103;-75
2021/06/14 11:36:23;;;;;;;3.72;2.10;;;;;;;28.41;44.58;99898.62;1715338;81;21044;-74
2021/06/14 11:38:51;;;;;;;3.02;2.17;;;;;;;28.60;43.22;99910.02;1733225;80;21491;-74
2021/06/14 11:41:32;;;;;;;5.15;2.30;;;;;;;28.62;43.88;99908.69;1756259;80;21245;-73
2021/06/14 11:44:29;;;;;;;5.30;3.35;;;;;;;28.75;44.96;99903.41;1776134;79;21458;-73
2021/06/14 11:47:13;;;;;;;3.05;2.00;;;;;;;29.00;43.40;99900.22;1757535;80;21047;-72
2021/06/14 11:49:40;;;;;;;2.15;1.75;;;;;;;29.24;42.65;99885.78;1738230;78;21035;-74